Anthony, New Mexico
Current Conditions -  °F | °C
As of 1:58 AM on Friday 28 Nov 2014 (Local Time) from KBIF Reporting Station
Clear Clear  
Wind Chill: -2°   Ceiling: Unl
Heat Index:   Visibility: 10mi
Dew Point: -8°   Wind: 6mph
Humidity: 54%   Direction: 50°NE
Pressure: 30.28"   Gusts: NA
Location:  32°N, 106.6°W
Report Text: KBIF 280858Z AUTO 05005KT 10SM CLR 01/M08 A3028 RMK AO2 SLP230 T00061078 56008 $
Loading
Personal Weather Stations






























Interactive Weather Map New forecast layout! Learn more

10-Day Weather Forecast

Advertisements
Track Severe Weather on mobile